Terminal Aerodrome Forecast
Issued by NWS

Home | Current Version | Previous Version | Text Only | Print | Product List | Glossary On
Versions: 1 2 3 4 5 6 7 8 9 10 11 12 13 14 15 16 17 18 19 20 21 22 23 24 25 26
000
FTUS41 KPBZ 280900 AAA
TAFHLG
TAF AMD
KHLG 280917Z 2809/2906 29007KT P6SM OVC035
      TEMPO 2809/2810 1 1/2SM -SN BKN019
     FM281500 25008KT P6SM BKN035
     FM290000 18005KT P6SM BKN050=

USA.gov is the U.S. government's official web portal to all federal, state and local government web resources and services.